EW4214 Weather Reports


Display with metric or nautical units.
time (UTC)temp
F
wind
direction
speed
MPH
gust
MPH
rain 1hr
in
rain 24hr
in
rain mn
in
humidity
%
barometer
mb
20191016063748 93 138 1.0 7.0 0.00 0.05 0.01 59 1009.7
20191016062746 93 87 1.0 6.0 0.00 0.05 0.01 57 1010.2
20191016061747 93 132 1.0 7.0 0.00 0.05 0.01 57 1010.2
20191016060747 92 195 0.0 7.0 0.00 0.05 0.01 60 1010.4
20191016055736 93 189 1.0 8.0 0.00 0.05 0.01 58 1010.6
20191016054738 92 167 0.0 7.0 0.00 0.05 0.01 59 1010.8
20191016053730 92 151 1.0 4.0 0.00 0.05 0.01 61 1011.1
20191016052730 89 162 0.0 3.0 0.00 0.05 0.01 69 1011.1
20191016051729 89 122 2.0 4.0 0.00 0.05 0.01 70 1011.5
20191016050734 90 167 2.0 7.0 0.00 0.05 0.01 63 1011.7
20191016045728 91 174 1.0 3.0 0.00 0.05 0.01 60 1011.6
20191016044728 92 319 2.0 6.0 0.00 0.05 0.01 60 1011.8
20191016043728 93 85 4.0 6.0 0.00 0.05 0.01 58 1012.0
20191016042729 91 179 1.0 6.0 0.00 0.05 0.01 59 1012.1
20191016041729 93 87 1.0 6.0 0.00 0.05 0.01 58 1012.2
20191016040730 93 107 2.0 4.0 0.00 0.05 0.01 57 1012.3
20191016035728 92 217 1.0 3.0 0.00 0.05 0.01 61 1012.6
20191016034728 92 256 2.0 4.0 0.00 0.05 0.01 60 1012.6
20191016033727 92 112 1.0 3.0 0.00 0.05 0.01 60 1012.7
20191016032727 90 286 0.0 4.0 0.00 0.05 0.01 60 1012.8
20191016031727 90 172 1.0 4.0 0.00 0.05 0.01 62 1012.9
20191016030728 89 164 0.0 3.0 0.00 0.05 0.01 64 1013.2
20191016025727 89 84 2.0 4.0 0.00 0.05 0.01 64 1013.1
20191016024727 88 219 1.0 4.0 0.00 0.05 0.01 66 1013.3
20191016023727 89 299 3.0 4.0 0.01 0.05 0.01 64 1013.2
20191016022727 88 226 1.0 4.0 0.01 0.05 0.01 67 1013.2
20191016021726 88 171 1.0 4.0 0.01 0.05 0.01 67 1013.1
20191016020724 88 327 1.0 3.0 0.01 0.05 0.01 69 1013.0
20191016015725 87 150 1.0 3.0 0.01 0.05 0.01 69 1013.0
20191016014722 87 61 2.0 3.0 0.01 0.05 0.01 69 1012.8
20191016013716 85 145 0.0 1.0 0.00 0.04 0.00 72 1013.0
20191016012715 85 145 0.0 1.0 0.00 0.04 0.00 72 1012.8
20191016011702 84 187 0.0 3.0 0.00 0.04 0.00 75 1012.7
20191016010659 84 8 3.0 3.0 0.00 0.04 0.00 75 1012.5
20191016005658 83 256 1.0 2.0 0.00 0.04 0.00 77 1012.5
20191016004705 83 125 2.0 3.0 0.00 0.04 0.00 78 1012.5
20191016003700 82 178 1.0 3.0 0.00 0.04 0.00 80 1012.3
20191016002658 81 84 1.0 3.0 0.00 0.04 0.00 82 1012.4
20191016001658 81 131 1.0 3.0 0.00 0.04 0.00 82 1012.3
20191016000658 81 176 0.0 1.0 0.00 0.04 0.00 84 1012.1
20191015235658 81 146 2.0 3.0 0.00 0.04 0.00 84 1012.0
20191015234655 80 173 0.0 1.0 0.00 0.04 0.00 86 1012.0
20191015233652 79 230 0.0 1.0 0.00 0.04 0.00 87 1012.0
20191015232652 79 197 0.0 2.0 0.00 0.04 0.00 88 1011.7
20191015231652 78 203 0.0 1.0 0.00 0.04 0.00 88 1011.7
20191015230652 78 218 0.0 1.0 0.00 0.04 0.00 88 1011.6
20191015225652 78 201 0.0 1.0 0.00 0.04 0.00 89 1011.3
20191015224652 79 182 0.0 1.0 0.00 0.04 0.00 88 1011.3
20191015223652 79 232 0.0 3.0 0.00 0.04 0.00 88 1011.1
20191015222657 79 215 0.0 1.0 0.00 0.04 0.00 89 1010.9
20191015221652 79 214 0.0 1.0 0.00 0.04 0.00 88 1010.8
20191015220653 79 199 0.0 0.0 0.00 0.04 0.00 90 1010.7
20191015215653 79 182 0.0 0.0 0.00 0.04 0.00 90 1010.6
20191015214653 79 172 0.0 0.0 0.00 0.04 0.00 90 1010.7
20191015213653 79 186 0.0 0.0 0.00 0.04 0.00 90 1010.7
20191015212653 79 186 0.0 0.0 0.00 0.04 0.00 89 1010.5
20191015211652 79 189 0.0 0.0 0.00 0.04 0.00 89 1010.5
20191015210652 79 211 0.0 1.0 0.00 0.04 0.00 88 1010.6
20191015205652 79 217 0.0 1.0 0.00 0.04 0.00 88 1010.7
20191015204652 80 206 0.0 2.0 0.00 0.04 0.00 88 1010.7
20191015203652 80 216 0.0 1.0 0.00 0.04 0.00 88 1010.8
20191015202653 79 209 0.0 0.0 0.00 0.04 0.00 88 1010.8
20191015201653 79 204 0.0 0.0 0.00 0.04 0.00 89 1010.7
20191015200652 79 186 0.0 0.0 0.00 0.04 0.00 89 1010.8
20191015195652 79 185 0.0 0.0 0.00 0.04 0.00 89 1010.8
20191015194652 79 185 0.0 0.0 0.00 0.04 0.00 88 1010.9
20191015193653 80 185 0.0 0.0 0.00 0.04 0.00 88 1010.9
20191015192653 80 185 0.0 0.0 0.00 0.04 0.00 88 1011.0
20191015191652 80 186 0.0 0.0 0.00 0.04 0.00 88 1011.1
20191015190652 79 197 0.0 0.0 0.00 0.04 0.00 89 1011.2
20191015185656 80 197 0.0 0.0 0.00 0.04 0.00 89 1011.2
20191015184652 80 197 0.0 0.0 0.00 0.04 0.00 88 1011.2
20191015183652 80 197 0.0 1.0 0.00 0.04 0.00 87 1011.4
20191015182652 80 209 0.0 1.0 0.00 0.04 0.00 86 1011.7
20191015181652 80 192 0.0 1.0 0.00 0.04 0.00 88 1011.7
20191015180652 80 181 0.0 1.0 0.00 0.04 0.00 90 1011.6
20191015175652 80 184 0.0 0.0 0.00 0.04 0.00 91 1011.6
20191015174652 80 184 0.0 0.0 0.00 0.04 0.00 90 1011.6
20191015173651 80 182 0.0 0.0 0.00 0.04 0.00 91 1011.7
20191015172654 80 182 0.0 0.0 0.00 0.04 0.00 90 1011.7
20191015171652 80 183 0.0 0.0 0.00 0.04 0.00 90 1011.8
20191015170652 80 181 0.0 0.0 0.00 0.04 0.00 89 1011.8
20191015164653 80 176 0.0 0.0 0.00 0.04 0.04 88 1011.8
20191015163652 80 175 0.0 0.0 0.00 0.04 0.04 89 1012.0
20191015162652 80 175 0.0 0.0 0.00 0.04 0.04 90 1012.0
20191015161652 80 175 0.0 0.0 0.00 0.04 0.04 89 1012.1
20191015160651 80 175 0.0 0.0 0.00 0.04 0.04 89 1012.2
20191015155650 80 175 0.0 0.0 0.00 0.04 0.04 89 1012.3
20191015154651 80 175 0.0 0.0 0.00 0.04 0.04 89 1012.3
20191015153651 80 176 0.0 0.0 0.00 0.04 0.04 89 1012.3
20191015152653 80 176 0.0 0.0 0.00 0.04 0.04 90 1012.3
20191015151651 80 176 0.0 0.0 0.00 0.04 0.04 89 1012.3
20191015150653 81 176 0.0 0.0 0.00 0.04 0.04 89 1012.3
20191015145701 81 176 0.0 0.0 0.00 0.04 0.04 88 1012.4
20191015144656 80 176 0.0 0.0 0.00 0.04 0.04 87 1012.2
20191015143651 81 175 0.0 0.0 0.00 0.04 0.04 87 1012.3
20191015142650 81 176 0.0 0.0 0.00 0.04 0.04 88 1012.1
20191015141655 81 177 0.0 0.0 0.00 0.04 0.04 88 1012.1
20191015140644 80 177 0.0 0.0 0.00 0.04 0.04 89 1012.0
20191015135652 81 179 0.0 1.0 0.00 0.04 0.04 88 1011.9
20191015134652 81 181 0.0 1.0 0.00 0.04 0.04 88 1011.8
20191015133651 81 187 0.0 0.0 0.00 0.04 0.04 87 1011.6
20191015132642 80 173 0.0 1.0 0.04 0.04 0.04 90 1011.6
20191015131641 81 198 0.0 1.0 0.04 0.04 0.04 90 1011.5
20191015130641 80 176 0.0 1.0 0.04 0.04 0.04 87 1011.3
20191015125641 80 177 0.0 2.0 0.04 0.04 0.04 88 1011.4
20191015124639 80 139 0.0 3.0 0.04 0.04 0.04 89 1011.4
20191015123639 82 160 1.0 7.0 0.04 0.04 0.04 85 1011.4
20191015122638 86 95 1.0 7.0 0.00 0.00 0.00 70 1010.8
20191015121643 88 110 0.0 1.0 0.00 0.00 0.00 66 1010.6
20191015120637 88 198 0.0 0.0 0.00 0.00 0.00 67 1010.2
20191015115636 88 191 0.0 0.0 0.00 0.00 0.00 66 1010.0
20191015114636 88 192 0.0 1.0 0.00 0.00 0.00 65 1009.9
20191015113636 88 180 0.0 1.0 0.00 0.00 0.00 64 1009.8
20191015112636 88 176 0.0 1.0 0.00 0.00 0.00 63 1009.6
20191015111635 89 186 0.0 2.0 0.00 0.00 0.00 62 1009.4
20191015110634 89 181 0.0 3.0 0.00 0.00 0.00 61 1009.3
20191015105634 89 86 0.0 2.0 0.00 0.00 0.00 61 1009.1
20191015104634 90 191 0.0 1.0 0.00 0.00 0.00 61 1009.0
20191015103634 90 192 0.0 1.0 0.00 0.00 0.00 59 1008.9
20191015102633 90 191 0.0 2.0 0.00 0.00 0.00 59 1008.8
20191015101633 91 192 0.0 2.0 0.00 0.00 0.00 58 1008.9
20191015100633 91 200 0.0 3.0 0.00 0.00 0.00 58 1008.8
20191015095633 91 93 2.0 3.0 0.00 0.00 0.00 55 1008.9
20191015094633 92 100 2.0 2.0 0.00 0.00 0.00 56 1008.8
20191015093633 92 147 1.0 3.0 0.00 0.00 0.00 54 1008.7
20191015092636 93 152 1.0 3.0 0.00 0.00 0.00 52 1008.8
20191015091632 94 172 0.0 3.0 0.00 0.00 0.00 52 1008.8
20191015090632 94 195 0.0 3.0 0.00 0.00 0.00 52 1008.8
20191015085631 94 169 0.0 3.0 0.00 0.00 0.00 54 1008.9
20191015084631 94 272 2.0 2.0 0.00 0.00 0.00 52 1008.8
20191015083631 94 181 1.0 3.0 0.00 0.00 0.00 52 1009.1
20191015082630 94 162 0.0 6.0 0.00 0.00 0.00 50 1009.1
20191015081637 94 270 0.0 4.0 0.00 0.00 0.00 51 1009.2
20191015080629 95 173 0.0 3.0 0.00 0.00 0.00 50 1009.2
20191015075629 93 203 1.0 6.0 0.00 0.00 0.00 53 1009.2
20191015074628 93 286 2.0 4.0 0.00 0.00 0.00 54 1009.3
20191015073628 92 73 2.0 3.0 0.00 0.00 0.00 55 1009.5
20191015072628 93 213 0.0 3.0 0.00 0.00 0.00 53 1009.6
20191015072148 93 202 0.0 6.0 0.00 0.00 0.00 55 1009.8
20191015070630 93 172 0.0 4.0 0.00 0.00 0.00 53 1009.8
20191015065628 92 173 0.0 3.0 0.00 0.00 0.00 55 1010.1
20191015064627 94 182 2.0 4.0 0.00 0.00 0.00 51 1010.3